createdAt,value
2022-09-12T00:00:27.705Z,17.90
2022-09-12T00:02:59.870Z,18.30
2022-09-12T00:05:33.509Z,18.00
2022-09-12T00:08:05.238Z,18.00
2022-09-12T00:10:38.674Z,17.70
2022-09-12T00:13:11.584Z,17.80
2022-09-12T00:15:44.098Z,18.30
2022-09-12T00:18:16.491Z,18.40
2022-09-12T00:20:49.332Z,17.80
2022-09-12T00:23:20.999Z,18.10
2022-09-12T00:25:53.431Z,17.40
2022-09-12T00:28:25.574Z,18.00
2022-09-12T00:30:57.208Z,17.20
2022-09-12T00:33:29.873Z,17.60
2022-09-12T00:36:04.911Z,17.70
2022-09-12T00:38:39.151Z,17.30
2022-09-12T00:41:15.238Z,17.30
2022-09-12T00:43:48.968Z,17.70
2022-09-12T00:46:20.617Z,17.90
2022-09-12T00:48:58.026Z,18.30
2022-09-12T00:51:31.398Z,18.20
2022-09-12T00:54:06.272Z,17.90
2022-09-12T00:56:40.121Z,17.70
2022-09-12T00:59:14.382Z,17.20
2022-09-12T01:01:48.812Z,16.40
2022-09-12T01:04:22.072Z,15.70
2022-09-12T01:06:56.145Z,17.10
2022-09-12T01:09:27.809Z,15.20
2022-09-12T01:12:02.357Z,15.10
2022-09-12T01:14:34.526Z,14.90
2022-09-12T01:17:07.189Z,16.60
2022-09-12T01:20:12.933Z,16.00
2022-09-12T01:22:45.364Z,14.60
2022-09-12T01:25:36.423Z,14.50
2022-09-12T01:28:28.744Z,14.30
2022-09-12T01:31:11.778Z,14.40
2022-09-12T01:33:53.382Z,14.30
2022-09-12T01:36:34.657Z,14.30
2022-09-12T01:39:18.238Z,14.30
2022-09-12T01:41:54.556Z,14.20
2022-09-12T01:44:33.036Z,14.20
2022-09-12T01:47:05.983Z,14.10
2022-09-12T01:49:46.819Z,14.10
2022-09-12T01:52:24.967Z,14.00
2022-09-12T01:55:09.839Z,13.90
2022-09-12T01:57:46.037Z,14.00
2022-09-12T02:00:18.176Z,14.00
2022-09-12T02:03:03.411Z,16.40
2022-09-12T02:05:37.248Z,14.00
2022-09-12T02:08:31.496Z,14.80
2022-09-12T02:11:10.468Z,14.00
2022-09-12T02:13:44.305Z,14.00
2022-09-12T02:16:21.327Z,14.00
2022-09-12T02:18:56.053Z,14.00
2022-09-12T02:21:33.261Z,13.90
2022-09-12T02:24:08.274Z,14.70
2022-09-12T02:27:01.711Z,13.80
2022-09-12T02:29:33.422Z,13.70
2022-09-12T02:32:08.563Z,13.80
2022-09-12T02:34:43.279Z,13.70
2022-09-12T02:37:39.400Z,13.70
2022-09-12T02:40:11.528Z,13.60
2022-09-12T02:42:44.096Z,13.70
2022-09-12T02:45:16.757Z,13.60
2022-09-12T02:47:51.404Z,13.60
2022-09-12T02:50:24.027Z,13.60
2022-09-12T02:53:00.157Z,13.60
2022-09-12T02:55:33.186Z,13.70
2022-09-12T02:58:07.662Z,13.60
2022-09-12T03:00:51.701Z,15.00
2022-09-12T03:03:39.134Z,13.50
2022-09-12T03:06:32.443Z,13.40
2022-09-12T03:09:39.647Z,13.50
2022-09-12T03:12:27.598Z,13.40
2022-09-12T03:15:01.970Z,13.50
2022-09-12T03:17:33.638Z,13.50
2022-09-12T03:20:09.946Z,13.60
2022-09-12T03:22:51.118Z,13.50
2022-09-12T03:25:28.472Z,13.50
2022-09-12T03:28:06.185Z,13.50
2022-09-12T03:30:42.439Z,13.50
2022-09-12T03:33:15.695Z,14.10
2022-09-12T03:35:48.187Z,13.50
2022-09-12T03:38:20.419Z,13.50
2022-09-12T03:40:54.842Z,13.50
2022-09-12T03:43:26.877Z,13.50
2022-09-12T03:45:59.583Z,13.50
2022-09-12T03:48:32.295Z,13.40
2022-09-12T03:51:05.955Z,13.30
2022-09-12T03:53:38.690Z,13.20
2022-09-12T03:56:11.487Z,13.20
2022-09-12T03:58:44.136Z,12.70
2022-09-12T04:01:17.849Z,13.30
2022-09-12T04:03:51.943Z,14.40
2022-09-12T04:06:24.613Z,13.60
2022-09-12T04:08:56.995Z,13.50
2022-09-12T04:11:29.044Z,13.60
2022-09-12T04:14:01.790Z,13.50
2022-09-12T04:16:35.688Z,14.10
2022-09-12T04:19:08.531Z,13.40
2022-09-12T04:21:42.101Z,13.40
2022-09-12T04:24:14.248Z,13.40
2022-09-12T04:26:47.545Z,14.30
2022-09-12T04:29:20.370Z,11.50
2022-09-12T04:31:52.985Z,13.20
2022-09-12T04:34:24.904Z,13.20
2022-09-12T04:36:58.441Z,13.30
2022-09-12T04:39:31.096Z,11.60
2022-09-12T04:42:04.574Z,15.70
2022-09-12T04:44:38.056Z,13.30
2022-09-12T04:47:10.749Z,13.60
2022-09-12T04:49:42.665Z,13.30
2022-09-12T04:52:15.178Z,13.30
2022-09-12T04:54:47.262Z,16.40
2022-09-12T04:57:18.968Z,13.40
2022-09-12T04:59:51.457Z,13.30
2022-09-12T05:02:23.198Z,13.40
2022-09-12T05:04:55.748Z,13.50
2022-09-12T05:07:27.389Z,13.50
2022-09-12T05:10:00.861Z,13.40
2022-09-12T05:16:01.395Z,13.40
2022-09-12T05:18:34.773Z,13.50
2022-09-12T05:21:08.070Z,13.50
2022-09-12T05:23:40.996Z,16.20
2022-09-12T05:26:14.467Z,13.70
2022-09-12T05:28:47.546Z,13.80
2022-09-12T05:31:20.699Z,13.70
2022-09-12T05:33:54.756Z,13.60
2022-09-12T05:36:27.955Z,13.60
2022-09-12T05:39:00.873Z,14.10
2022-09-12T05:41:34.684Z,14.40
2022-09-12T05:44:08.069Z,13.70
2022-09-12T05:46:41.130Z,13.60
2022-09-12T05:49:14.465Z,13.60
2022-09-12T05:51:46.228Z,13.60
2022-09-12T05:54:20.622Z,13.60
2022-09-12T05:56:52.323Z,13.60
2022-09-12T05:59:24.894Z,13.60
2022-09-12T06:01:56.766Z,13.80
2022-09-12T06:04:29.366Z,13.30
2022-09-12T06:07:01.018Z,13.70
2022-09-12T06:09:33.526Z,13.70
2022-09-12T06:12:05.625Z,13.70
2022-09-12T06:14:37.558Z,13.70
2022-09-12T06:17:10.151Z,13.80
2022-09-12T06:19:41.883Z,13.80
2022-09-12T06:22:14.619Z,13.90
2022-09-12T06:24:46.473Z,15.80
2022-09-12T06:27:19.054Z,16.10
2022-09-12T06:29:50.722Z,16.20
2022-09-12T06:32:23.251Z,16.30
2022-09-12T06:34:55.440Z,17.00
2022-09-12T06:37:29.660Z,18.00
2022-09-12T06:40:02.003Z,14.20
2022-09-12T06:42:34.634Z,16.30
2022-09-12T06:45:07.205Z,17.40
2022-09-12T06:47:38.971Z,18.10
2022-09-12T06:50:11.501Z,17.30
2022-09-12T06:52:44.419Z,16.70
2022-09-12T06:55:20.307Z,15.80
2022-09-12T06:57:54.369Z,15.60
2022-09-12T07:00:26.853Z,17.20
2022-09-12T07:02:58.608Z,15.50
2022-09-12T07:05:31.114Z,15.40
2022-09-12T07:08:04.197Z,15.40
2022-09-12T07:10:36.004Z,15.40
2022-09-12T07:13:08.538Z,16.00
2022-09-12T07:15:40.431Z,16.40
2022-09-12T07:18:13.006Z,15.50
2022-09-12T07:20:44.736Z,15.50
2022-09-12T07:23:17.412Z,15.60
2022-09-12T07:25:53.152Z,15.70
2022-09-12T07:28:25.194Z,16.00
2022-09-12T07:30:58.234Z,16.10
2022-09-12T07:33:30.547Z,16.20
2022-09-12T07:36:03.860Z,17.60
2022-09-12T07:38:36.927Z,17.60
2022-09-12T07:41:11.835Z,18.20
2022-09-12T07:43:44.045Z,18.80
2022-09-12T07:46:16.579Z,18.70
2022-09-12T07:48:53.194Z,18.80
2022-09-12T07:51:26.155Z,19.10
2022-09-12T07:53:58.199Z,18.60
2022-09-12T07:56:34.605Z,18.20
2022-09-12T07:59:08.820Z,19.30
2022-09-12T08:01:41.978Z,18.10
2022-09-12T08:04:13.701Z,18.10
2022-09-12T08:06:46.203Z,18.40
2022-09-12T08:09:18.427Z,19.90
2022-09-12T08:11:50.243Z,21.10
2022-09-12T08:14:24.269Z,21.80
2022-09-12T08:16:55.930Z,22.40
2022-09-12T08:19:28.457Z,23.60
2022-09-12T08:22:02.668Z,24.80
2022-09-12T08:24:35.352Z,24.10
2022-09-12T08:27:07.233Z,25.00
2022-09-12T08:29:39.353Z,25.60
2022-09-12T08:32:11.340Z,25.50
2022-09-12T08:34:43.853Z,25.50
2022-09-12T08:37:15.645Z,26.20
2022-09-12T08:39:48.229Z,25.60
2022-09-12T08:42:27.685Z,25.90
2022-09-12T08:45:06.550Z,26.40
2022-09-12T08:47:42.778Z,25.80
2022-09-12T08:50:18.222Z,25.40
2022-09-12T08:52:50.358Z,25.40
2022-09-12T08:55:34.533Z,25.40
2022-09-12T08:58:23.198Z,25.60
2022-09-12T09:01:04.208Z,26.60
2022-09-12T09:03:56.968Z,25.80
2022-09-12T09:06:32.171Z,25.90
2022-09-12T09:09:11.945Z,25.80
2022-09-12T09:11:54.914Z,25.90
2022-09-12T09:14:49.090Z,25.70
2022-09-12T09:17:25.688Z,25.10
2022-09-12T09:20:16.257Z,25.40
2022-09-12T09:23:09.074Z,26.00
2022-09-12T09:25:44.451Z,27.30
2022-09-12T09:28:34.369Z,28.60
2022-09-12T09:31:12.675Z,28.10
2022-09-12T09:33:46.655Z,27.70
2022-09-12T09:36:22.750Z,27.40
2022-09-12T09:39:03.015Z,26.20
2022-09-12T09:41:53.646Z,26.00
2022-09-12T09:44:28.725Z,25.60
2022-09-12T09:47:00.865Z,25.40
2022-09-12T09:49:34.406Z,26.80
2022-09-12T09:52:07.225Z,26.10
2022-09-12T09:54:41.358Z,26.20
2022-09-12T09:57:49.557Z,26.80
2022-09-12T10:00:28.039Z,28.10
2022-09-12T10:03:08.212Z,29.20
2022-09-12T10:05:47.381Z,28.70
2022-09-12T10:08:32.730Z,28.20
2022-09-12T10:11:07.194Z,28.10
2022-09-12T10:13:53.786Z,27.30
2022-09-12T10:16:31.998Z,26.90
2022-09-12T10:19:04.054Z,26.30
2022-09-12T10:21:41.760Z,26.20
2022-09-12T10:24:16.451Z,26.40
2022-09-12T10:26:55.872Z,26.10
2022-09-12T10:29:30.280Z,26.30
2022-09-12T10:32:07.198Z,27.30
2022-09-12T10:34:43.655Z,27.90
2022-09-12T10:37:23.311Z,27.40
2022-09-12T10:39:57.513Z,26.80
2022-09-12T10:42:42.847Z,26.80
2022-09-12T10:45:39.155Z,26.90
2022-09-12T10:48:31.649Z,27.10
2022-09-12T10:51:04.188Z,27.50
2022-09-12T10:53:43.936Z,27.60
2022-09-12T10:56:19.611Z,27.80
2022-09-12T10:58:57.283Z,27.70
2022-09-12T11:01:29.791Z,27.70
2022-09-12T11:04:20.457Z,27.90
2022-09-12T11:07:01.869Z,27.50
2022-09-12T11:09:36.491Z,28.10
2022-09-12T11:12:13.840Z,28.80
2022-09-12T11:14:56.825Z,28.20
2022-09-12T11:17:36.067Z,27.90
2022-09-12T11:20:26.619Z,27.60
2022-09-12T11:23:02.378Z,27.70
2022-09-12T11:25:52.469Z,27.90
2022-09-12T11:28:35.385Z,27.60
2022-09-12T11:31:07.065Z,27.50
2022-09-12T11:33:42.949Z,27.60
2022-09-12T11:36:26.152Z,27.90
2022-09-12T11:39:02.457Z,28.10
2022-09-12T11:41:38.230Z,28.10
2022-09-12T11:44:14.611Z,28.70
2022-09-12T11:46:51.188Z,28.60
2022-09-12T11:49:38.414Z,28.30
2022-09-12T11:52:16.668Z,28.00
2022-09-12T11:55:00.877Z,28.00
2022-09-12T11:57:40.281Z,28.20
2022-09-12T12:00:27.304Z,28.50
2022-09-12T12:03:18.716Z,28.50
2022-09-12T12:06:04.182Z,28.50
2022-09-12T12:08:40.965Z,28.70
2022-09-12T12:11:13.870Z,28.60
2022-09-12T12:13:48.578Z,28.90
2022-09-12T12:16:31.195Z,28.50
2022-09-12T12:19:24.171Z,27.90
2022-09-12T12:21:55.921Z,27.60
2022-09-12T12:24:30.997Z,27.80
2022-09-12T12:27:04.134Z,27.80
2022-09-12T12:29:40.335Z,27.80
2022-09-12T12:32:17.680Z,27.70
2022-09-12T12:34:50.295Z,27.50
2022-09-12T12:37:22.135Z,27.70
2022-09-12T12:39:56.048Z,27.60
2022-09-12T12:42:37.265Z,27.40
2022-09-12T12:45:08.925Z,27.40
2022-09-12T12:47:42.925Z,27.60
2022-09-12T12:50:19.961Z,27.90
2022-09-12T12:52:55.040Z,28.10
2022-09-12T12:55:33.690Z,27.90
2022-09-12T12:58:06.756Z,27.70
2022-09-12T13:00:40.760Z,27.90
2022-09-12T13:03:27.321Z,28.10
2022-09-12T13:06:02.162Z,27.70
2022-09-12T13:08:35.944Z,27.70
2022-09-12T13:11:10.619Z,27.60
2022-09-12T13:13:42.822Z,27.40
2022-09-12T13:16:29.147Z,27.20
2022-09-12T13:19:18.449Z,27.20
2022-09-12T13:21:57.382Z,27.50
2022-09-12T13:24:29.144Z,27.50
2022-09-12T13:27:02.837Z,27.20
2022-09-12T13:29:34.867Z,27.20
2022-09-12T13:32:09.597Z,27.00
2022-09-12T13:34:56.459Z,26.80
2022-09-12T13:37:28.970Z,26.80
2022-09-12T13:40:00.643Z,26.90
2022-09-12T13:42:38.933Z,26.90
2022-09-12T13:45:22.833Z,27.00
2022-09-12T13:48:00.029Z,27.20
2022-09-12T13:50:34.060Z,27.20
2022-09-12T13:53:07.088Z,27.00
2022-09-12T13:55:49.865Z,27.20
2022-09-12T13:58:26.408Z,27.30
2022-09-12T14:01:02.969Z,27.30
2022-09-12T14:03:59.195Z,27.40
2022-09-12T14:06:50.987Z,27.20
2022-09-12T14:09:29.209Z,27.50
2022-09-12T14:12:01.336Z,27.40
2022-09-12T14:14:36.768Z,27.40
2022-09-12T14:17:36.160Z,27.40
2022-09-12T14:20:12.334Z,27.50
2022-09-12T14:22:48.204Z,27.20
2022-09-12T14:25:25.549Z,27.20
2022-09-12T14:27:58.125Z,27.30
2022-09-12T14:30:39.058Z,27.30
2022-09-12T14:33:12.152Z,27.30
2022-09-12T14:35:45.828Z,27.30
2022-09-12T14:38:17.947Z,27.20
2022-09-12T14:40:52.463Z,27.20
2022-09-12T14:43:33.140Z,27.10
2022-09-12T14:46:07.122Z,27.40
2022-09-12T14:48:43.210Z,27.60
2022-09-12T14:51:24.270Z,27.50
2022-09-12T14:53:56.390Z,27.50
2022-09-12T14:56:39.460Z,27.40
2022-09-12T14:59:35.567Z,27.40
2022-09-12T15:02:13.409Z,27.20
2022-09-12T15:04:48.418Z,27.30
2022-09-12T15:07:35.445Z,27.30
2022-09-12T15:10:23.256Z,27.10
2022-09-12T15:13:14.132Z,27.10
2022-09-12T15:15:55.831Z,27.20
2022-09-12T15:18:28.881Z,27.20
2022-09-12T15:21:02.619Z,27.00
2022-09-12T15:23:40.615Z,27.80
2022-09-12T15:26:13.545Z,26.80
2022-09-12T15:28:46.499Z,26.80
2022-09-12T15:31:22.008Z,26.80
2022-09-12T15:33:54.837Z,26.80
2022-09-12T15:36:27.042Z,26.90
2022-09-12T15:38:59.525Z,26.80
2022-09-12T15:41:36.952Z,26.60
2022-09-12T15:44:13.312Z,26.50
2022-09-12T15:46:45.159Z,26.60
2022-09-12T15:49:17.713Z,26.70
2022-09-12T15:51:49.346Z,26.90
2022-09-12T15:54:22.141Z,27.00
2022-09-12T15:56:54.014Z,27.00
2022-09-12T15:59:31.544Z,26.90
2022-09-12T16:02:03.751Z,26.90
2022-09-12T16:04:35.942Z,27.10
2022-09-12T16:07:12.506Z,27.20
2022-09-12T16:09:45.104Z,27.10
2022-09-12T16:12:16.835Z,27.00
2022-09-12T16:14:49.600Z,26.90
2022-09-12T16:17:21.242Z,26.80
2022-09-12T16:19:53.948Z,26.80
2022-09-12T16:22:26.209Z,27.00
2022-09-12T16:24:58.257Z,27.10
2022-09-12T16:27:29.945Z,27.00
2022-09-12T16:30:02.557Z,27.00
2022-09-12T16:32:34.774Z,26.80
2022-09-12T16:35:07.383Z,26.80
2022-09-12T16:37:39.117Z,26.90
2022-09-12T16:40:12.343Z,26.90
2022-09-12T16:42:44.449Z,26.70
2022-09-12T16:45:16.647Z,26.60
2022-09-12T16:47:48.367Z,26.70
2022-09-12T16:50:21.050Z,26.70
2022-09-12T16:52:53.160Z,26.60
2022-09-12T16:55:25.146Z,26.70
2022-09-12T16:57:57.719Z,26.70
2022-09-12T17:00:29.377Z,26.70
2022-09-12T17:03:01.912Z,26.60
2022-09-12T17:05:33.986Z,26.40
2022-09-12T17:08:06.006Z,26.30
2022-09-12T17:10:40.764Z,26.20
2022-09-12T17:13:12.437Z,26.20
2022-09-12T17:15:46.042Z,26.10
2022-09-12T17:18:17.742Z,26.10
2022-09-12T17:20:50.788Z,26.10
2022-09-12T17:23:22.603Z,25.90
2022-09-12T17:25:55.256Z,25.80
2022-09-12T17:28:27.250Z,25.80
2022-09-12T17:31:01.374Z,25.60
2022-09-12T17:33:33.234Z,25.50
2022-09-12T17:36:08.510Z,25.30
2022-09-12T17:38:40.278Z,25.00
2022-09-12T17:41:16.442Z,24.80
2022-09-12T17:43:52.748Z,24.40
2022-09-12T17:46:27.261Z,24.20
2022-09-12T17:49:00.903Z,23.90
2022-09-12T17:51:33.837Z,23.70
2022-09-12T17:54:11.799Z,23.50
2022-09-12T17:56:45.846Z,23.20
2022-09-12T17:59:19.269Z,23.10
2022-09-12T18:02:10.486Z,23.00
2022-09-12T18:04:45.767Z,24.30
2022-09-12T18:07:19.338Z,22.70
2022-09-12T18:09:51.879Z,22.50
2022-09-12T18:12:24.491Z,22.60
2022-09-12T18:14:56.595Z,22.20
2022-09-12T18:17:28.859Z,22.10
2022-09-12T18:20:01.483Z,22.60
2022-09-12T18:22:33.878Z,22.00
2022-09-12T18:25:05.681Z,21.90
2022-09-12T18:27:38.159Z,21.90
2022-09-12T18:30:21.218Z,21.90
2022-09-12T18:32:53.843Z,21.90
2022-09-12T18:35:25.509Z,21.90
2022-09-12T18:37:58.053Z,21.80
2022-09-12T18:40:30.138Z,21.70
2022-09-12T18:43:01.798Z,21.50
2022-09-12T18:45:34.613Z,21.50
2022-09-12T18:48:06.988Z,21.80
2022-09-12T18:50:38.667Z,21.50
2022-09-12T18:53:11.216Z,21.20
2022-09-12T18:55:43.287Z,22.30
2022-09-12T18:58:14.948Z,20.80
2022-09-12T19:00:49.665Z,20.70
2022-09-12T19:03:21.430Z,20.50
2022-09-12T19:05:53.965Z,20.40
2022-09-12T19:08:25.611Z,20.40
2022-09-12T19:11:04.079Z,20.40
2022-09-12T19:13:37.452Z,20.40
2022-09-12T19:16:10.912Z,20.40
2022-09-12T19:18:43.157Z,20.40
2022-09-12T19:21:25.985Z,20.30
2022-09-12T19:23:58.877Z,20.20
2022-09-12T19:26:31.685Z,20.20
2022-09-12T19:29:03.742Z,20.10
2022-09-12T19:31:36.372Z,20.00
2022-09-12T19:34:08.277Z,20.00
2022-09-12T19:36:45.539Z,19.90
2022-09-12T19:39:20.056Z,19.90
2022-09-12T19:41:51.772Z,19.90
2022-09-12T19:44:27.000Z,19.80
2022-09-12T19:46:59.060Z,19.80
2022-09-12T19:49:30.757Z,19.80
2022-09-12T19:52:03.888Z,19.70
2022-09-12T19:54:35.635Z,19.80
2022-09-12T19:57:08.312Z,19.60
2022-09-12T19:59:40.385Z,19.40
2022-09-12T20:02:12.131Z,19.50
2022-09-12T20:04:44.691Z,19.40
2022-09-12T20:07:16.324Z,19.40
2022-09-12T20:09:49.098Z,19.20
2022-09-12T20:12:21.575Z,19.20
2022-09-12T20:14:53.733Z,19.10
2022-09-12T20:17:26.011Z,19.10
2022-09-12T20:19:58.563Z,19.10
2022-09-12T20:22:30.880Z,18.90
2022-09-12T20:25:02.743Z,18.90
2022-09-12T20:27:34.814Z,18.80
2022-09-12T20:30:06.792Z,20.00
2022-09-12T20:32:39.345Z,18.90
2022-09-12T20:35:11.312Z,18.80
2022-09-12T20:37:43.685Z,18.80
2022-09-12T20:40:15.839Z,18.70
2022-09-12T20:42:47.606Z,18.60
2022-09-12T20:45:20.144Z,18.60
2022-09-12T20:47:52.207Z,18.50
2022-09-12T20:50:24.680Z,18.40
2022-09-12T20:52:56.886Z,18.50
2022-09-12T20:55:28.568Z,18.40
2022-09-12T20:58:01.043Z,18.40
2022-09-12T21:00:33.103Z,18.40
2022-09-12T21:03:05.583Z,18.30
2022-09-12T21:05:37.446Z,18.20
2022-09-12T21:08:10.201Z,18.20
2022-09-12T21:10:42.804Z,18.20
2022-09-12T21:13:15.605Z,18.20
2022-09-12T21:15:47.297Z,18.00
2022-09-12T21:18:19.780Z,18.00
2022-09-12T21:20:52.700Z,17.80
2022-09-12T21:23:25.757Z,17.80
2022-09-12T21:26:01.374Z,17.80
2022-09-12T21:28:34.150Z,18.10
2022-09-12T21:31:05.993Z,18.40
2022-09-12T21:33:38.602Z,18.70
2022-09-12T21:36:10.832Z,19.00
2022-09-12T21:38:42.547Z,19.20
2022-09-12T21:41:16.156Z,19.20
2022-09-12T21:43:48.086Z,19.30
2022-09-12T21:46:21.061Z,20.30
2022-09-12T21:48:52.775Z,18.90
2022-09-12T21:51:25.335Z,19.10
2022-09-12T21:53:57.041Z,21.30
2022-09-12T21:56:29.930Z,20.90
2022-09-12T21:59:01.675Z,19.50
2022-09-12T22:01:34.245Z,19.70
2022-09-12T22:04:05.970Z,19.00
2022-09-12T22:06:38.509Z,18.30
2022-09-12T22:09:10.652Z,18.30
2022-09-12T22:11:43.877Z,18.80
2022-09-12T22:14:18.008Z,18.80
2022-09-12T22:16:49.686Z,18.60
2022-09-12T22:19:22.343Z,19.00
2022-09-12T22:22:13.285Z,20.30
2022-09-12T22:24:45.429Z,18.60
2022-09-12T22:27:17.966Z,19.10
2022-09-12T22:29:51.174Z,20.30
2022-09-12T22:32:22.898Z,18.60
2022-09-12T22:34:55.464Z,18.30
2022-09-12T22:37:27.197Z,18.50
2022-09-12T22:40:00.455Z,18.70
2022-09-12T22:42:32.143Z,18.90
2022-09-12T22:45:05.317Z,18.50
2022-09-12T22:47:37.066Z,19.20
2022-09-12T22:50:09.775Z,18.90
2022-09-12T22:52:41.654Z,18.70
2022-09-12T22:55:14.996Z,18.30
2022-09-12T22:57:47.193Z,17.90
2022-09-12T23:00:20.170Z,18.30
2022-09-12T23:02:51.813Z,18.30
2022-09-12T23:05:24.302Z,18.60
2022-09-12T23:07:55.960Z,18.20
2022-09-12T23:10:28.594Z,18.30
2022-09-12T23:13:00.552Z,18.60
2022-09-12T23:15:33.378Z,18.50
2022-09-12T23:18:05.321Z,18.50
2022-09-12T23:20:37.877Z,18.90
2022-09-12T23:23:10.070Z,18.50
2022-09-12T23:25:42.728Z,18.50
2022-09-12T23:28:15.302Z,19.30
2022-09-12T23:30:53.612Z,18.30
2022-09-12T23:33:29.912Z,18.60
2022-09-12T23:36:05.293Z,18.60
2022-09-12T23:38:37.792Z,18.40
2022-09-12T23:41:10.733Z,19.80
2022-09-12T23:43:43.603Z,17.80
2022-09-12T23:46:16.317Z,19.20
2022-09-12T23:48:48.208Z,18.10
2022-09-12T23:51:22.238Z,18.30
2022-09-12T23:53:53.941Z,18.60
2022-09-12T23:56:26.485Z,18.20
2022-09-12T23:58:58.169Z,19.70
